createdAt,value
2023-01-26T00:00:23.721Z,2.97
2023-01-26T00:02:54.029Z,1.33
2023-01-26T00:05:22.921Z,1.33
2023-01-26T00:07:51.807Z,0.90
2023-01-26T00:10:21.042Z,0.70
2023-01-26T00:12:49.846Z,0.77
2023-01-26T00:15:20.396Z,0.60
2023-01-26T00:17:51.629Z,1.20
2023-01-26T00:20:22.034Z,2.03
2023-01-26T00:22:50.856Z,0.80
2023-01-26T00:25:19.755Z,0.67
2023-01-26T00:27:48.709Z,1.40
2023-01-26T00:30:17.971Z,1.57
2023-01-26T00:32:46.840Z,1.50
2023-01-26T00:35:15.628Z,1.53
2023-01-26T00:37:45.999Z,3.03
2023-01-26T00:40:17.163Z,1.57
2023-01-26T00:42:46.966Z,3.60
2023-01-26T00:45:15.838Z,1.40
2023-01-26T00:47:47.023Z,1.73
2023-01-26T00:50:17.930Z,1.10
2023-01-26T00:52:48.291Z,2.53
2023-01-26T00:55:18.173Z,1.10
2023-01-26T00:57:46.987Z,0.80
2023-01-26T01:00:17.773Z,1.73
2023-01-26T01:02:46.616Z,1.53
2023-01-26T01:05:15.425Z,1.20
2023-01-26T01:07:44.219Z,0.60
2023-01-26T01:10:14.586Z,0.50
2023-01-26T01:12:43.551Z,0.60
2023-01-26T01:15:12.974Z,0.60
2023-01-26T01:17:42.084Z,3.60
2023-01-26T01:20:12.793Z,4.97
2023-01-26T01:22:43.397Z,5.77
2023-01-26T01:25:14.607Z,10.93
2023-01-26T01:27:43.436Z,11.20
2023-01-26T01:30:14.056Z,7.33
2023-01-26T01:32:45.083Z,11.53
2023-01-26T01:35:13.993Z,7.43
2023-01-26T01:37:42.799Z,7.53
2023-01-26T01:40:15.873Z,5.87
2023-01-26T01:42:49.388Z,4.83
2023-01-26T01:45:44.939Z,5.47
2023-01-26T01:48:20.933Z,5.60
2023-01-26T01:50:53.433Z,4.53
2023-01-26T01:53:25.491Z,4.80
2023-01-26T01:55:59.334Z,1.30
2023-01-26T01:58:29.862Z,1.67
2023-01-26T02:01:01.446Z,4.07
2023-01-26T02:03:34.141Z,0.77
2023-01-26T02:06:09.077Z,1.17
2023-01-26T02:08:41.414Z,0.60
2023-01-26T02:11:15.426Z,1.00
2023-01-26T02:13:47.683Z,0.50
2023-01-26T02:16:16.628Z,0.77
2023-01-26T02:18:46.234Z,0.67
2023-01-26T02:21:19.746Z,0.50
2023-01-26T02:24:00.916Z,0.40
2023-01-26T02:26:34.625Z,0.50
2023-01-26T02:29:05.964Z,0.53
2023-01-26T02:31:34.819Z,0.50
2023-01-26T02:34:03.701Z,0.50
2023-01-26T02:36:34.165Z,0.60
2023-01-26T02:39:22.404Z,1.47
2023-01-26T02:42:11.532Z,0.67
2023-01-26T02:44:42.929Z,0.60
2023-01-26T02:47:15.801Z,0.60
2023-01-26T02:49:50.975Z,1.10
2023-01-26T02:52:23.486Z,0.60
2023-01-26T02:55:19.658Z,2.23
2023-01-26T02:57:51.107Z,1.23
2023-01-26T03:00:21.222Z,0.50
2023-01-26T03:02:53.520Z,2.23
2023-01-26T03:05:22.393Z,0.70
2023-01-26T03:07:52.548Z,0.60
2023-01-26T03:10:25.542Z,0.70
2023-01-26T03:12:56.039Z,0.60
2023-01-26T03:15:43.831Z,0.70
2023-01-26T03:18:38.675Z,0.60
2023-01-26T03:21:28.578Z,0.70
2023-01-26T03:24:14.702Z,0.80
2023-01-26T03:27:02.307Z,1.17
2023-01-26T03:29:36.109Z,0.70
2023-01-26T03:32:05.671Z,0.70
2023-01-26T03:34:35.290Z,0.87
2023-01-26T03:37:06.567Z,0.73
2023-01-26T03:40:03.814Z,1.00
2023-01-26T03:42:50.254Z,0.50
2023-01-26T03:45:38.093Z,0.57
2023-01-26T03:48:26.320Z,0.40
2023-01-26T03:51:12.840Z,0.30
2023-01-26T03:53:58.982Z,0.50
2023-01-26T03:56:32.915Z,0.40
2023-01-26T03:59:09.545Z,0.50
2023-01-26T04:02:01.766Z,1.27
2023-01-26T04:04:48.800Z,0.30
2023-01-26T04:07:35.585Z,0.70
2023-01-26T04:10:04.719Z,1.23
2023-01-26T04:12:33.563Z,0.70
2023-01-26T04:15:32.093Z,0.53
2023-01-26T04:18:25.621Z,0.70
2023-01-26T04:21:11.935Z,0.50
2023-01-26T04:23:43.260Z,0.60
2023-01-26T04:26:12.103Z,0.80
2023-01-26T04:28:41.012Z,0.50
2023-01-26T04:31:10.811Z,0.40
2023-01-26T04:33:42.465Z,0.50
2023-01-26T04:36:12.473Z,0.60
2023-01-26T04:38:46.013Z,0.50
2023-01-26T04:41:18.532Z,0.43
2023-01-26T04:43:52.558Z,0.40
2023-01-26T04:46:21.682Z,0.40
2023-01-26T04:48:53.301Z,0.50
2023-01-26T04:51:23.460Z,1.13
2023-01-26T04:53:52.606Z,0.50
2023-01-26T04:56:25.890Z,0.57
2023-01-26T04:58:56.477Z,1.03
2023-01-26T05:01:26.370Z,0.70
2023-01-26T05:03:57.786Z,0.73
2023-01-26T05:06:26.785Z,0.50
2023-01-26T05:08:57.124Z,0.50
2023-01-26T05:11:27.391Z,0.67
2023-01-26T05:14:07.054Z,1.47
2023-01-26T05:16:50.653Z,0.57
2023-01-26T05:19:47.854Z,2.60
2023-01-26T05:22:31.626Z,0.70
2023-01-26T05:25:35.763Z,0.80
2023-01-26T05:28:09.066Z,2.50
2023-01-26T05:30:38.030Z,1.33
2023-01-26T05:33:09.452Z,1.10
2023-01-26T05:35:40.671Z,0.80
2023-01-26T05:38:11.598Z,1.53
2023-01-26T05:40:41.259Z,0.87
2023-01-26T05:43:10.462Z,0.67
2023-01-26T05:45:57.936Z,1.20
2023-01-26T05:48:27.935Z,0.60
2023-01-26T05:50:59.178Z,0.60
2023-01-26T05:53:28.459Z,3.77
2023-01-26T05:55:57.334Z,0.93
2023-01-26T05:58:28.563Z,1.07
2023-01-26T06:00:57.970Z,1.83
2023-01-26T06:03:31.792Z,2.00
2023-01-26T06:06:02.263Z,3.23
2023-01-26T06:08:38.601Z,1.93
2023-01-26T06:11:26.119Z,0.97
2023-01-26T06:14:06.907Z,0.70
2023-01-26T06:16:35.988Z,1.90
2023-01-26T06:19:05.116Z,1.33
2023-01-26T06:21:35.968Z,8.33
2023-01-26T06:24:05.640Z,2.13
2023-01-26T06:26:34.906Z,1.10
2023-01-26T06:29:03.806Z,2.10
2023-01-26T06:31:38.528Z,2.80
2023-01-26T06:34:09.068Z,2.37
2023-01-26T06:36:42.978Z,0.90
2023-01-26T06:39:18.575Z,1.50
2023-01-26T06:41:47.678Z,1.30
2023-01-26T06:44:16.515Z,3.03
2023-01-26T06:46:47.227Z,3.87
2023-01-26T06:49:16.926Z,2.60
2023-01-26T06:51:57.019Z,4.87
2023-01-26T06:54:39.038Z,3.73
2023-01-26T06:57:28.828Z,2.77
2023-01-26T06:59:59.312Z,4.47
2023-01-26T07:02:46.479Z,2.80
2023-01-26T07:05:16.232Z,2.37
2023-01-26T07:07:46.791Z,2.17
2023-01-26T07:10:15.659Z,0.80
2023-01-26T07:12:47.167Z,3.43
2023-01-26T07:15:16.084Z,6.90
2023-01-26T07:17:44.917Z,19.03
2023-01-26T07:20:14.125Z,3.10
2023-01-26T07:22:42.761Z,5.97
2023-01-26T07:25:12.834Z,2.70
2023-01-26T07:27:41.465Z,2.60
2023-01-26T07:30:11.926Z,4.53
2023-01-26T07:32:40.774Z,1.20
2023-01-26T07:35:10.030Z,1.20
2023-01-26T07:37:38.867Z,5.00
2023-01-26T07:40:09.228Z,4.70
2023-01-26T07:42:39.380Z,2.60
2023-01-26T07:45:20.427Z,2.47
2023-01-26T07:47:49.099Z,1.97
2023-01-26T07:50:18.596Z,1.57
2023-01-26T07:52:48.130Z,1.10
2023-01-26T07:55:17.069Z,1.90
2023-01-26T07:57:49.009Z,1.83
2023-01-26T08:00:19.185Z,2.00
2023-01-26T08:02:51.496Z,1.53
2023-01-26T08:05:20.301Z,2.57
2023-01-26T08:07:48.913Z,2.03
2023-01-26T08:10:19.026Z,3.30
2023-01-26T08:12:49.073Z,2.43
2023-01-26T08:15:17.884Z,6.80
2023-01-26T08:17:46.469Z,3.70
2023-01-26T08:20:15.186Z,2.10
2023-01-26T08:22:43.793Z,11.43
2023-01-26T08:25:12.419Z,9.97
2023-01-26T08:27:41.019Z,3.80
2023-01-26T08:30:13.000Z,6.03
2023-01-26T08:32:41.924Z,2.93
2023-01-26T08:35:11.382Z,2.83
2023-01-26T08:37:39.982Z,1.57
2023-01-26T08:40:10.960Z,0.80
2023-01-26T08:42:39.766Z,1.80
2023-01-26T08:45:11.096Z,2.00
2023-01-26T08:47:39.728Z,1.33
2023-01-26T08:50:09.262Z,0.80
2023-01-26T08:52:38.118Z,3.77
2023-01-26T08:55:07.488Z,4.57
2023-01-26T08:57:36.087Z,1.53
2023-01-26T09:00:05.450Z,1.80
2023-01-26T09:02:35.703Z,1.30
2023-01-26T09:05:04.426Z,2.23
2023-01-26T09:07:33.021Z,4.03
2023-01-26T09:10:01.612Z,2.03
2023-01-26T09:12:30.230Z,5.90
2023-01-26T09:14:58.998Z,1.63
2023-01-26T09:17:27.617Z,4.83
2023-01-26T09:19:57.659Z,3.43
2023-01-26T09:22:26.619Z,2.10
2023-01-26T09:24:55.249Z,2.50
2023-01-26T09:27:24.118Z,3.17
2023-01-26T09:29:53.795Z,5.80
2023-01-26T09:32:22.641Z,3.23
2023-01-26T09:34:51.396Z,1.70
2023-01-26T09:37:21.497Z,1.53
2023-01-26T09:39:50.075Z,1.60
2023-01-26T09:42:39.374Z,3.50
2023-01-26T09:45:26.070Z,8.97
2023-01-26T09:48:11.233Z,13.60
2023-01-26T09:50:47.649Z,1.87
2023-01-26T09:53:23.924Z,1.60
2023-01-26T09:55:53.995Z,8.60
2023-01-26T09:58:32.771Z,1.37
2023-01-26T10:01:04.642Z,3.13
2023-01-26T10:03:40.763Z,1.27
2023-01-26T10:06:21.662Z,14.77
2023-01-26T10:09:18.373Z,0.97
2023-01-26T10:11:50.229Z,1.50
2023-01-26T10:14:24.902Z,1.17
2023-01-26T10:16:55.354Z,1.33
2023-01-26T10:19:34.958Z,2.10
2023-01-26T10:22:09.851Z,0.90
2023-01-26T10:24:41.148Z,1.20
2023-01-26T10:27:15.301Z,1.30
2023-01-26T10:29:44.146Z,2.50
2023-01-26T10:32:16.025Z,1.27
2023-01-26T10:34:46.801Z,1.40
2023-01-26T10:37:22.801Z,0.90
2023-01-26T10:40:12.229Z,1.10
2023-01-26T10:42:42.620Z,3.27
2023-01-26T10:45:27.699Z,1.10
2023-01-26T10:48:08.038Z,1.03
2023-01-26T10:50:37.195Z,1.73
2023-01-26T10:53:06.912Z,3.47
2023-01-26T10:55:37.694Z,2.47
2023-01-26T10:58:07.412Z,3.67
2023-01-26T11:00:37.237Z,1.70
2023-01-26T11:03:18.388Z,1.13
2023-01-26T11:05:48.308Z,3.67
2023-01-26T11:08:33.784Z,2.30
2023-01-26T11:11:04.874Z,4.10
2023-01-26T11:13:33.578Z,1.10
2023-01-26T11:16:12.087Z,2.30
2023-01-26T11:18:48.950Z,6.77
2023-01-26T11:21:21.807Z,8.43
2023-01-26T11:24:05.189Z,1.20
2023-01-26T11:27:06.526Z,2.70
2023-01-26T11:29:48.860Z,2.37
2023-01-26T11:32:24.045Z,1.43
2023-01-26T11:35:06.431Z,7.43
2023-01-26T11:37:48.130Z,4.50
2023-01-26T11:40:30.055Z,1.37
2023-01-26T11:43:22.610Z,7.33
2023-01-26T11:46:05.617Z,2.63
2023-01-26T11:48:40.921Z,2.50
2023-01-26T11:51:21.505Z,2.50
2023-01-26T11:54:09.724Z,3.57
2023-01-26T11:56:49.928Z,2.07
2023-01-26T11:59:26.638Z,2.47
2023-01-26T12:02:01.758Z,2.97
2023-01-26T12:04:34.606Z,7.07
2023-01-26T12:07:11.270Z,2.40
2023-01-26T12:09:46.355Z,5.53
2023-01-26T12:12:20.483Z,3.80
2023-01-26T12:14:54.933Z,9.50
2023-01-26T12:17:33.222Z,8.57
2023-01-26T12:20:12.903Z,6.67
2023-01-26T12:22:46.713Z,4.13
2023-01-26T12:25:28.427Z,7.17
2023-01-26T12:28:04.315Z,2.70
2023-01-26T12:30:40.405Z,3.20
2023-01-26T12:33:11.666Z,2.83
2023-01-26T12:35:58.214Z,2.83
2023-01-26T12:38:40.074Z,6.77
2023-01-26T12:41:15.615Z,3.60
2023-01-26T12:43:56.346Z,8.97
2023-01-26T12:46:28.446Z,15.57
2023-01-26T12:49:02.863Z,3.70
2023-01-26T12:51:37.211Z,6.40
2023-01-26T12:54:14.489Z,2.47
2023-01-26T12:56:48.650Z,2.03
2023-01-26T12:59:46.530Z,4.83
2023-01-26T13:02:27.619Z,6.03
2023-01-26T13:04:57.985Z,5.13
2023-01-26T13:07:31.757Z,5.23
2023-01-26T13:10:26.081Z,3.43
2023-01-26T13:12:59.727Z,5.43
2023-01-26T13:15:30.418Z,4.40
2023-01-26T13:18:02.307Z,4.87
2023-01-26T13:20:51.480Z,4.13
2023-01-26T13:23:53.169Z,0.97
2023-01-26T13:26:49.400Z,2.63
2023-01-26T13:29:32.926Z,1.70
2023-01-26T13:32:03.972Z,1.87
2023-01-26T13:34:40.811Z,2.30
2023-01-26T13:37:16.260Z,3.83
2023-01-26T13:39:49.342Z,1.00
2023-01-26T13:42:23.952Z,1.50
2023-01-26T13:44:57.995Z,1.30
2023-01-26T13:47:33.012Z,2.57
2023-01-26T13:50:03.163Z,2.37
2023-01-26T13:52:31.764Z,3.07
2023-01-26T13:55:03.154Z,3.00
2023-01-26T13:57:32.383Z,2.37
2023-01-26T14:00:02.106Z,5.40
2023-01-26T14:02:38.906Z,7.70
2023-01-26T14:05:22.289Z,4.40
2023-01-26T14:07:51.884Z,2.53
2023-01-26T14:10:21.393Z,3.23
2023-01-26T14:12:56.768Z,6.27
2023-01-26T14:15:27.649Z,3.53
2023-01-26T14:17:59.064Z,3.37
2023-01-26T14:20:31.133Z,2.80
2023-01-26T14:23:14.981Z,11.83
2023-01-26T14:25:48.159Z,4.73
2023-01-26T14:28:18.620Z,20.07
2023-01-26T14:30:53.802Z,6.20
2023-01-26T14:33:25.095Z,3.07
2023-01-26T14:36:00.619Z,2.37
2023-01-26T14:38:33.039Z,3.20
2023-01-26T14:41:04.022Z,3.87
2023-01-26T14:43:33.553Z,3.70
2023-01-26T14:46:08.987Z,3.77
2023-01-26T14:48:41.860Z,2.67
2023-01-26T14:51:19.890Z,3.80
2023-01-26T14:53:53.538Z,3.20
2023-01-26T14:56:25.078Z,2.93
2023-01-26T14:58:55.515Z,7.87
2023-01-26T15:01:26.697Z,5.53
2023-01-26T15:04:02.482Z,8.13
2023-01-26T15:06:33.523Z,5.47
2023-01-26T15:09:05.184Z,5.23
2023-01-26T15:11:56.076Z,3.40
2023-01-26T15:14:38.085Z,2.07
2023-01-26T15:17:07.192Z,3.20
2023-01-26T15:19:42.862Z,3.00
2023-01-26T15:22:32.523Z,3.50
2023-01-26T15:25:17.176Z,2.93
2023-01-26T15:27:51.691Z,2.90
2023-01-26T15:30:24.656Z,5.53
2023-01-26T15:32:53.322Z,3.80
2023-01-26T15:35:25.892Z,6.83
2023-01-26T15:38:07.035Z,9.47
2023-01-26T15:40:35.787Z,4.90
2023-01-26T15:43:22.584Z,5.00
2023-01-26T15:45:54.454Z,6.73
2023-01-26T15:48:24.239Z,6.43
2023-01-26T15:50:53.175Z,7.17
2023-01-26T15:53:24.214Z,9.00
2023-01-26T15:55:55.500Z,7.63
2023-01-26T15:58:25.021Z,5.50
2023-01-26T16:00:53.782Z,5.60
2023-01-26T16:03:23.309Z,7.43
2023-01-26T16:05:51.882Z,9.20
2023-01-26T16:08:23.802Z,5.43
2023-01-26T16:10:54.661Z,4.40
2023-01-26T16:13:23.308Z,2.80
2023-01-26T16:15:53.053Z,2.10
2023-01-26T16:18:22.286Z,4.13
2023-01-26T16:20:51.527Z,4.97
2023-01-26T16:23:21.845Z,9.33
2023-01-26T16:25:54.068Z,14.00
2023-01-26T16:28:23.591Z,27.63
2023-01-26T16:30:52.523Z,23.33
2023-01-26T16:33:22.320Z,20.80
2023-01-26T16:35:50.986Z,20.20
2023-01-26T16:38:19.690Z,23.03
2023-01-26T16:40:50.212Z,24.17
2023-01-26T16:43:24.119Z,31.37
2023-01-26T16:45:53.420Z,29.30
2023-01-26T16:48:23.287Z,21.13
2023-01-26T16:50:53.744Z,22.43
2023-01-26T16:53:27.013Z,17.00
2023-01-26T16:55:56.359Z,15.80
2023-01-26T16:58:27.511Z,12.90
2023-01-26T17:00:57.025Z,15.33
2023-01-26T17:03:25.876Z,14.77
2023-01-26T17:05:54.564Z,13.20
2023-01-26T17:08:23.179Z,17.77
2023-01-26T17:11:02.054Z,15.37
2023-01-26T17:13:33.179Z,14.17
2023-01-26T17:16:01.980Z,15.67
2023-01-26T17:18:33.616Z,15.60
2023-01-26T17:21:06.136Z,14.67
2023-01-26T17:23:35.001Z,17.37
2023-01-26T17:26:03.915Z,17.83
2023-01-26T17:28:34.083Z,15.00
2023-01-26T17:31:08.321Z,18.83
2023-01-26T17:33:37.032Z,17.43
2023-01-26T17:36:07.351Z,24.90
2023-01-26T17:38:35.982Z,22.10
2023-01-26T17:41:04.899Z,20.47
2023-01-26T17:43:35.419Z,25.37
2023-01-26T17:46:06.581Z,25.13
2023-01-26T17:48:37.622Z,22.73
2023-01-26T17:51:10.285Z,21.00
2023-01-26T17:53:39.696Z,25.13
2023-01-26T17:56:09.484Z,26.30
2023-01-26T17:58:40.585Z,18.43
2023-01-26T18:01:11.368Z,21.50
2023-01-26T18:03:43.542Z,19.83
2023-01-26T18:06:12.735Z,18.67
2023-01-26T18:08:41.686Z,21.03
2023-01-26T18:11:12.032Z,27.77
2023-01-26T18:13:42.444Z,18.90
2023-01-26T18:16:13.503Z,24.07
2023-01-26T18:18:42.291Z,22.50
2023-01-26T18:21:17.117Z,19.03
2023-01-26T18:23:47.249Z,19.03
2023-01-26T18:26:16.716Z,20.00
2023-01-26T18:28:47.342Z,21.00
2023-01-26T18:31:18.761Z,19.57
2023-01-26T18:33:47.855Z,20.37
2023-01-26T18:36:19.079Z,20.87
2023-01-26T18:38:51.681Z,18.43
2023-01-26T18:41:23.263Z,27.90
2023-01-26T18:43:58.801Z,23.40
2023-01-26T18:46:31.011Z,16.23
2023-01-26T18:49:01.060Z,19.13
2023-01-26T18:51:30.939Z,17.80
2023-01-26T18:54:00.194Z,20.27
2023-01-26T18:56:29.247Z,28.03
2023-01-26T18:58:59.467Z,20.17
2023-01-26T19:01:28.177Z,15.20
2023-01-26T19:03:57.834Z,12.73
2023-01-26T19:06:28.475Z,13.17
2023-01-26T19:09:00.823Z,16.07
2023-01-26T19:11:31.066Z,19.00
2023-01-26T19:14:02.683Z,16.90
2023-01-26T19:16:32.084Z,23.97
2023-01-26T19:19:01.192Z,16.40
2023-01-26T19:21:32.213Z,10.37
2023-01-26T19:24:05.826Z,5.93
2023-01-26T19:26:35.259Z,8.20
2023-01-26T19:29:05.903Z,10.43
2023-01-26T19:31:36.009Z,10.53
2023-01-26T19:34:07.082Z,17.30
2023-01-26T19:36:37.975Z,18.67
2023-01-26T19:39:08.600Z,17.97
2023-01-26T19:41:39.129Z,14.60
2023-01-26T19:44:09.453Z,20.40
2023-01-26T19:46:38.045Z,20.40
2023-01-26T19:49:08.812Z,24.73
2023-01-26T19:51:37.591Z,23.83
2023-01-26T19:54:06.249Z,23.07
2023-01-26T19:56:36.950Z,24.73
2023-01-26T19:59:10.425Z,23.17
2023-01-26T20:01:39.208Z,26.20
2023-01-26T20:04:10.658Z,27.47
2023-01-26T20:06:39.917Z,21.77
2023-01-26T20:09:09.483Z,21.87
2023-01-26T20:11:38.381Z,24.10
2023-01-26T20:14:09.929Z,24.77
2023-01-26T20:16:39.799Z,21.30
2023-01-26T20:19:08.653Z,22.67
2023-01-26T20:21:39.016Z,21.63
2023-01-26T20:24:08.705Z,20.37
2023-01-26T20:26:37.678Z,19.70
2023-01-26T20:29:06.746Z,18.27
2023-01-26T20:31:37.153Z,17.13
2023-01-26T20:34:06.740Z,16.27
2023-01-26T20:36:36.780Z,16.90
2023-01-26T20:39:06.091Z,13.23
2023-01-26T20:41:35.252Z,14.03
2023-01-26T20:44:06.431Z,7.10
2023-01-26T20:46:38.898Z,3.90
2023-01-26T20:49:09.821Z,4.03
2023-01-26T20:51:40.648Z,1.13
2023-01-26T20:54:12.809Z,2.23
2023-01-26T20:56:43.586Z,1.77
2023-01-26T20:59:12.564Z,3.97
2023-01-26T21:01:42.667Z,2.80
2023-01-26T21:04:11.537Z,2.83
2023-01-26T21:06:41.774Z,2.87
2023-01-26T21:09:12.755Z,1.70
2023-01-26T21:11:43.429Z,2.20
2023-01-26T21:14:14.000Z,1.80
2023-01-26T21:16:44.502Z,1.30
2023-01-26T21:19:13.423Z,2.70
2023-01-26T21:21:42.092Z,5.47
2023-01-26T21:24:12.021Z,2.20
2023-01-26T21:26:41.087Z,1.90
2023-01-26T21:29:12.790Z,2.23
2023-01-26T21:31:41.767Z,1.90
2023-01-26T21:34:11.921Z,3.50
2023-01-26T21:36:40.614Z,3.20
2023-01-26T21:39:13.393Z,5.27
2023-01-26T21:41:57.102Z,4.47
2023-01-26T21:44:28.375Z,4.03
2023-01-26T21:46:58.741Z,4.57
2023-01-26T21:49:29.709Z,3.37
2023-01-26T21:52:15.871Z,2.87
2023-01-26T21:54:44.786Z,3.50
2023-01-26T21:57:31.053Z,7.60
2023-01-26T22:00:00.225Z,3.90
2023-01-26T22:02:29.082Z,3.53
2023-01-26T22:05:00.006Z,2.30
2023-01-26T22:07:30.114Z,2.10
2023-01-26T22:09:58.816Z,3.30
2023-01-26T22:12:27.411Z,2.50
2023-01-26T22:14:56.000Z,4.23
2023-01-26T22:17:24.701Z,3.40
2023-01-26T22:19:53.745Z,3.50
2023-01-26T22:22:23.788Z,3.90
2023-01-26T22:24:52.501Z,3.60
2023-01-26T22:27:21.058Z,2.97
2023-01-26T22:29:49.664Z,3.30
2023-01-26T22:32:18.265Z,5.60
2023-01-26T22:34:46.874Z,3.00
2023-01-26T22:37:15.661Z,7.67
2023-01-26T22:39:45.694Z,4.07
2023-01-26T22:42:14.281Z,2.30
2023-01-26T22:44:42.888Z,2.57
2023-01-26T22:47:11.602Z,2.07
2023-01-26T22:49:40.454Z,2.00
2023-01-26T22:52:09.171Z,2.83
2023-01-26T22:54:37.802Z,3.80
2023-01-26T22:57:07.794Z,6.90
2023-01-26T22:59:36.587Z,2.90
2023-01-26T23:02:05.323Z,2.80
2023-01-26T23:04:34.051Z,3.37
2023-01-26T23:07:02.915Z,2.50
2023-01-26T23:09:31.541Z,2.40
2023-01-26T23:12:03.383Z,2.40
2023-01-26T23:14:35.575Z,2.60
2023-01-26T23:17:05.620Z,2.40
2023-01-26T23:19:34.299Z,2.50
2023-01-26T23:22:02.959Z,2.73
2023-01-26T23:24:31.753Z,3.13
2023-01-26T23:27:00.381Z,2.57
2023-01-26T23:29:29.304Z,4.20
2023-01-26T23:31:59.378Z,3.13
2023-01-26T23:34:28.025Z,3.10
2023-01-26T23:36:56.632Z,3.00
2023-01-26T23:39:25.367Z,2.33
2023-01-26T23:41:53.971Z,2.07
2023-01-26T23:44:22.672Z,1.97
2023-01-26T23:46:51.451Z,2.00
2023-01-26T23:49:21.712Z,3.23
2023-01-26T23:51:50.420Z,2.40
2023-01-26T23:54:19.318Z,1.90
2023-01-26T23:56:48.028Z,3.33
2023-01-26T23:59:16.918Z,1.77
